sensor_id;sensor_type;location;lat;lon;timestamp;P1;durP1;ratioP1;P2;durP2;ratioP2
69569;SDS011;56781;42.292;23.146;2023-05-07T00:01:42;12.35;;;5.80;;
69569;SDS011;56781;42.292;23.146;2023-05-07T00:04:09;9.38;;;5.25;;
69569;SDS011;56781;42.292;23.146;2023-05-07T00:06:37;8.13;;;5.10;;
69569;SDS011;56781;42.292;23.146;2023-05-07T00:09:05;11.50;;;6.10;;
69569;SDS011;56781;42.292;23.146;2023-05-07T00:11:33;10.25;;;5.60;;
69569;SDS011;56781;42.292;23.146;2023-05-07T00:14:02;11.07;;;5.45;;
69569;SDS011;56781;42.292;23.146;2023-05-07T00:16:29;9.52;;;5.35;;
69569;SDS011;56781;42.292;23.146;2023-05-07T00:18:57;10.37;;;5.37;;
69569;SDS011;56781;42.292;23.146;2023-05-07T00:21:24;10.35;;;5.30;;
69569;SDS011;56781;42.292;23.146;2023-05-07T00:23:53;10.77;;;5.57;;
69569;SDS011;56781;42.292;23.146;2023-05-07T00:26:21;10.73;;;5.72;;
69569;SDS011;56781;42.292;23.146;2023-05-07T00:28:49;9.40;;;5.32;;
69569;SDS011;56781;42.292;23.146;2023-05-07T00:31:16;9.77;;;5.60;;
69569;SDS011;56781;42.292;23.146;2023-05-07T00:33:43;9.80;;;5.78;;
69569;SDS011;56781;42.292;23.146;2023-05-07T00:36:10;9.60;;;5.43;;
69569;SDS011;56781;42.292;23.146;2023-05-07T00:38:37;9.60;;;5.28;;
69569;SDS011;56781;42.292;23.146;2023-05-07T00:41:05;8.98;;;5.15;;
69569;SDS011;56781;42.292;23.146;2023-05-07T00:43:32;9.07;;;4.67;;
69569;SDS011;56781;42.292;23.146;2023-05-07T00:45:59;10.68;;;5.85;;
69569;SDS011;56781;42.292;23.146;2023-05-07T00:48:27;16.75;;;5.20;;
69569;SDS011;56781;42.292;23.146;2023-05-07T00:50:54;9.60;;;5.45;;
69569;SDS011;56781;42.292;23.146;2023-05-07T00:53:21;10.43;;;5.97;;
69569;SDS011;56781;42.292;23.146;2023-05-07T00:55:49;11.33;;;5.67;;
69569;SDS011;56781;42.292;23.146;2023-05-07T00:58:17;9.40;;;5.78;;
69569;SDS011;56781;42.292;23.146;2023-05-07T01:00:44;10.38;;;5.68;;
69569;SDS011;56781;42.292;23.146;2023-05-07T01:03:11;9.70;;;5.68;;
69569;SDS011;56781;42.292;23.146;2023-05-07T01:05:39;11.50;;;5.85;;
69569;SDS011;56781;42.292;23.146;2023-05-07T01:08:07;9.97;;;5.77;;
69569;SDS011;56781;42.292;23.146;2023-05-07T01:10:35;10.45;;;5.90;;
69569;SDS011;56781;42.292;23.146;2023-05-07T01:13:02;13.32;;;6.45;;
69569;SDS011;56781;42.292;23.146;2023-05-07T01:15:31;11.23;;;6.63;;
69569;SDS011;56781;42.292;23.146;2023-05-07T01:17:58;14.52;;;6.68;;
69569;SDS011;56781;42.292;23.146;2023-05-07T01:20:26;10.63;;;6.00;;
69569;SDS011;56781;42.292;23.146;2023-05-07T01:22:55;12.45;;;5.82;;
69569;SDS011;56781;42.292;23.146;2023-05-07T01:25:23;11.00;;;5.80;;
69569;SDS011;56781;42.292;23.146;2023-05-07T01:27:51;10.15;;;5.32;;
69569;SDS011;56781;42.292;23.146;2023-05-07T01:30:19;11.10;;;5.55;;
69569;SDS011;56781;42.292;23.146;2023-05-07T01:32:51;9.57;;;5.20;;
69569;SDS011;56781;42.292;23.146;2023-05-07T01:35:24;8.07;;;4.90;;
69569;SDS011;56781;42.292;23.146;2023-05-07T01:37:55;8.85;;;5.47;;
69569;SDS011;56781;42.292;23.146;2023-05-07T01:40:24;9.32;;;5.38;;
69569;SDS011;56781;42.292;23.146;2023-05-07T01:42:52;10.85;;;5.65;;
69569;SDS011;56781;42.292;23.146;2023-05-07T01:45:21;10.33;;;5.50;;
69569;SDS011;56781;42.292;23.146;2023-05-07T01:47:49;8.23;;;5.05;;
69569;SDS011;56781;42.292;23.146;2023-05-07T01:50:17;11.38;;;5.93;;
69569;SDS011;56781;42.292;23.146;2023-05-07T01:52:45;12.13;;;6.60;;
69569;SDS011;56781;42.292;23.146;2023-05-07T01:55:14;11.38;;;6.65;;
69569;SDS011;56781;42.292;23.146;2023-05-07T01:57:41;14.63;;;6.53;;
69569;SDS011;56781;42.292;23.146;2023-05-07T02:00:08;12.55;;;6.35;;
69569;SDS011;56781;42.292;23.146;2023-05-07T02:02:36;12.00;;;6.25;;
69569;SDS011;56781;42.292;23.146;2023-05-07T02:05:05;9.80;;;6.18;;
69569;SDS011;56781;42.292;23.146;2023-05-07T02:07:32;11.10;;;5.95;;
69569;SDS011;56781;42.292;23.146;2023-05-07T02:10:00;10.43;;;5.70;;
69569;SDS011;56781;42.292;23.146;2023-05-07T02:12:27;10.65;;;6.15;;
69569;SDS011;56781;42.292;23.146;2023-05-07T02:14:54;12.05;;;6.22;;
69569;SDS011;56781;42.292;23.146;2023-05-07T02:17:21;9.65;;;5.45;;
69569;SDS011;56781;42.292;23.146;2023-05-07T02:19:48;12.25;;;5.30;;
69569;SDS011;56781;42.292;23.146;2023-05-07T02:22:15;9.30;;;4.97;;
69569;SDS011;56781;42.292;23.146;2023-05-07T02:24:43;11.43;;;6.40;;
69569;SDS011;56781;42.292;23.146;2023-05-07T02:27:10;11.13;;;6.43;;
69569;SDS011;56781;42.292;23.146;2023-05-07T02:29:38;13.32;;;6.68;;
69569;SDS011;56781;42.292;23.146;2023-05-07T02:32:05;11.75;;;6.50;;
69569;SDS011;56781;42.292;23.146;2023-05-07T02:34:33;12.27;;;6.33;;
69569;SDS011;56781;42.292;23.146;2023-05-07T02:37:00;11.27;;;6.20;;
69569;SDS011;56781;42.292;23.146;2023-05-07T02:39:27;9.88;;;5.50;;
69569;SDS011;56781;42.292;23.146;2023-05-07T02:41:54;9.75;;;4.95;;
69569;SDS011;56781;42.292;23.146;2023-05-07T02:44:21;10.38;;;5.93;;
69569;SDS011;56781;42.292;23.146;2023-05-07T02:46:49;13.73;;;5.87;;
69569;SDS011;56781;42.292;23.146;2023-05-07T02:49:16;10.68;;;5.80;;
69569;SDS011;56781;42.292;23.146;2023-05-07T02:51:43;11.95;;;5.93;;
69569;SDS011;56781;42.292;23.146;2023-05-07T02:54:10;14.27;;;6.03;;
69569;SDS011;56781;42.292;23.146;2023-05-07T02:56:37;11.35;;;6.32;;
69569;SDS011;56781;42.292;23.146;2023-05-07T02:59:04;11.10;;;6.30;;
69569;SDS011;56781;42.292;23.146;2023-05-07T03:01:32;12.30;;;6.50;;
69569;SDS011;56781;42.292;23.146;2023-05-07T03:03:59;10.57;;;5.80;;
69569;SDS011;56781;42.292;23.146;2023-05-07T03:06:26;10.32;;;5.50;;
69569;SDS011;56781;42.292;23.146;2023-05-07T03:08:53;10.73;;;5.60;;
69569;SDS011;56781;42.292;23.146;2023-05-07T03:11:20;10.57;;;6.23;;
69569;SDS011;56781;42.292;23.146;2023-05-07T03:13:48;11.20;;;5.85;;
69569;SDS011;56781;42.292;23.146;2023-05-07T03:16:16;10.00;;;5.55;;
69569;SDS011;56781;42.292;23.146;2023-05-07T03:18:43;10.50;;;5.38;;
69569;SDS011;56781;42.292;23.146;2023-05-07T03:21:10;9.18;;;5.00;;
69569;SDS011;56781;42.292;23.146;2023-05-07T03:23:37;9.60;;;5.60;;
69569;SDS011;56781;42.292;23.146;2023-05-07T03:26:05;10.25;;;5.60;;
69569;SDS011;56781;42.292;23.146;2023-05-07T03:28:32;10.50;;;5.68;;
69569;SDS011;56781;42.292;23.146;2023-05-07T03:30:59;9.65;;;5.53;;
69569;SDS011;56781;42.292;23.146;2023-05-07T03:33:26;9.23;;;5.70;;
69569;SDS011;56781;42.292;23.146;2023-05-07T03:35:54;9.90;;;5.20;;
69569;SDS011;56781;42.292;23.146;2023-05-07T03:38:21;9.20;;;5.20;;
69569;SDS011;56781;42.292;23.146;2023-05-07T03:40:48;10.00;;;5.28;;
69569;SDS011;56781;42.292;23.146;2023-05-07T03:43:15;12.23;;;5.78;;
69569;SDS011;56781;42.292;23.146;2023-05-07T03:45:42;9.55;;;5.82;;
69569;SDS011;56781;42.292;23.146;2023-05-07T03:48:09;10.50;;;5.67;;
69569;SDS011;56781;42.292;23.146;2023-05-07T03:50:37;11.65;;;6.03;;
69569;SDS011;56781;42.292;23.146;2023-05-07T03:53:04;11.95;;;6.22;;
69569;SDS011;56781;42.292;23.146;2023-05-07T03:55:31;10.40;;;5.55;;
69569;SDS011;56781;42.292;23.146;2023-05-07T03:57:58;10.70;;;6.40;;
69569;SDS011;56781;42.292;23.146;2023-05-07T04:00:26;12.20;;;6.40;;
69569;SDS011;56781;42.292;23.146;2023-05-07T04:02:53;12.93;;;6.57;;
69569;SDS011;56781;42.292;23.146;2023-05-07T04:05:21;13.88;;;6.68;;
69569;SDS011;56781;42.292;23.146;2023-05-07T04:07:48;12.68;;;6.22;;
69569;SDS011;56781;42.292;23.146;2023-05-07T04:10:15;11.85;;;6.25;;
69569;SDS011;56781;42.292;23.146;2023-05-07T04:12:42;10.17;;;5.33;;
69569;SDS011;56781;42.292;23.146;2023-05-07T04:15:10;10.13;;;6.28;;
69569;SDS011;56781;42.292;23.146;2023-05-07T04:17:37;12.32;;;6.22;;
69569;SDS011;56781;42.292;23.146;2023-05-07T04:20:04;11.52;;;6.13;;
69569;SDS011;56781;42.292;23.146;2023-05-07T04:22:34;9.80;;;5.57;;
69569;SDS011;56781;42.292;23.146;2023-05-07T04:25:01;11.17;;;5.97;;
69569;SDS011;56781;42.292;23.146;2023-05-07T04:27:31;10.88;;;6.28;;
69569;SDS011;56781;42.292;23.146;2023-05-07T04:29:59;10.35;;;6.07;;
69569;SDS011;56781;42.292;23.146;2023-05-07T04:32:27;11.25;;;6.28;;
69569;SDS011;56781;42.292;23.146;2023-05-07T04:34:55;15.00;;;6.60;;
69569;SDS011;56781;42.292;23.146;2023-05-07T04:37:25;12.63;;;6.13;;
69569;SDS011;56781;42.292;23.146;2023-05-07T04:39:53;11.70;;;6.20;;
69569;SDS011;56781;42.292;23.146;2023-05-07T04:42:21;11.30;;;6.82;;
69569;SDS011;56781;42.292;23.146;2023-05-07T04:44:52;12.32;;;6.63;;
69569;SDS011;56781;42.292;23.146;2023-05-07T04:47:25;13.15;;;6.55;;
69569;SDS011;56781;42.292;23.146;2023-05-07T04:49:55;11.57;;;6.50;;
69569;SDS011;56781;42.292;23.146;2023-05-07T04:52:22;10.50;;;6.07;;
69569;SDS011;56781;42.292;23.146;2023-05-07T04:54:55;12.40;;;6.50;;
69569;SDS011;56781;42.292;23.146;2023-05-07T04:57:22;11.57;;;6.53;;
69569;SDS011;56781;42.292;23.146;2023-05-07T04:59:50;12.98;;;6.68;;
69569;SDS011;56781;42.292;23.146;2023-05-07T05:02:25;10.37;;;5.93;;
69569;SDS011;56781;42.292;23.146;2023-05-07T05:04:55;12.15;;;6.30;;
69569;SDS011;56781;42.292;23.146;2023-05-07T05:07:25;11.70;;;6.55;;
69569;SDS011;56781;42.292;23.146;2023-05-07T05:09:52;12.15;;;5.97;;
69569;SDS011;56781;42.292;23.146;2023-05-07T05:12:19;9.82;;;6.00;;
69569;SDS011;56781;42.292;23.146;2023-05-07T05:14:47;10.73;;;5.37;;
69569;SDS011;56781;42.292;23.146;2023-05-07T05:17:18;10.32;;;5.13;;
69569;SDS011;56781;42.292;23.146;2023-05-07T05:19:45;8.63;;;5.28;;
69569;SDS011;56781;42.292;23.146;2023-05-07T05:22:15;9.90;;;5.22;;
69569;SDS011;56781;42.292;23.146;2023-05-07T05:24:43;9.63;;;5.28;;
69569;SDS011;56781;42.292;23.146;2023-05-07T05:27:17;7.93;;;4.97;;
69569;SDS011;56781;42.292;23.146;2023-05-07T05:29:44;7.68;;;4.80;;
69569;SDS011;56781;42.292;23.146;2023-05-07T05:32:23;8.20;;;5.50;;
69569;SDS011;56781;42.292;23.146;2023-05-07T05:34:50;9.63;;;4.97;;
69569;SDS011;56781;42.292;23.146;2023-05-07T05:37:20;7.65;;;4.90;;
69569;SDS011;56781;42.292;23.146;2023-05-07T05:39:47;9.93;;;4.60;;
69569;SDS011;56781;42.292;23.146;2023-05-07T05:42:24;7.68;;;5.00;;
69569;SDS011;56781;42.292;23.146;2023-05-07T05:44:55;7.45;;;4.82;;
69569;SDS011;56781;42.292;23.146;2023-05-07T05:47:25;7.88;;;4.85;;
69569;SDS011;56781;42.292;23.146;2023-05-07T05:49:53;10.27;;;4.90;;
69569;SDS011;56781;42.292;23.146;2023-05-07T05:52:21;7.97;;;4.80;;
69569;SDS011;56781;42.292;23.146;2023-05-07T05:54:50;6.53;;;4.80;;
69569;SDS011;56781;42.292;23.146;2023-05-07T05:57:20;8.27;;;4.55;;
69569;SDS011;56781;42.292;23.146;2023-05-07T05:59:48;8.98;;;5.10;;
69569;SDS011;56781;42.292;23.146;2023-05-07T06:02:15;9.38;;;4.78;;
69569;SDS011;56781;42.292;23.146;2023-05-07T06:04:42;8.40;;;5.07;;
69569;SDS011;56781;42.292;23.146;2023-05-07T06:07:09;7.78;;;4.97;;
69569;SDS011;56781;42.292;23.146;2023-05-07T06:09:39;8.13;;;5.45;;
69569;SDS011;56781;42.292;23.146;2023-05-07T06:12:06;9.60;;;5.45;;
69569;SDS011;56781;42.292;23.146;2023-05-07T06:14:34;7.43;;;5.45;;
69569;SDS011;56781;42.292;23.146;2023-05-07T06:17:01;8.67;;;5.23;;
69569;SDS011;56781;42.292;23.146;2023-05-07T06:19:28;9.10;;;5.72;;
69569;SDS011;56781;42.292;23.146;2023-05-07T06:21:56;7.72;;;5.60;;
69569;SDS011;56781;42.292;23.146;2023-05-07T06:24:23;6.80;;;4.80;;
69569;SDS011;56781;42.292;23.146;2023-05-07T06:26:51;11.85;;;7.65;;
69569;SDS011;56781;42.292;23.146;2023-05-07T06:29:18;9.20;;;6.07;;
69569;SDS011;56781;42.292;23.146;2023-05-07T06:31:45;12.35;;;6.10;;
69569;SDS011;56781;42.292;23.146;2023-05-07T06:34:12;11.93;;;7.18;;
69569;SDS011;56781;42.292;23.146;2023-05-07T06:36:40;24.65;;;17.08;;
69569;SDS011;56781;42.292;23.146;2023-05-07T06:39:07;11.07;;;6.05;;
69569;SDS011;56781;42.292;23.146;2023-05-07T06:41:35;9.80;;;5.60;;
69569;SDS011;56781;42.292;23.146;2023-05-07T06:44:02;11.35;;;5.40;;
69569;SDS011;56781;42.292;23.146;2023-05-07T06:46:30;12.05;;;5.45;;
69569;SDS011;56781;42.292;23.146;2023-05-07T06:48:57;7.57;;;5.68;;
69569;SDS011;56781;42.292;23.146;2023-05-07T06:51:24;7.32;;;5.18;;
69569;SDS011;56781;42.292;23.146;2023-05-07T06:53:51;9.67;;;5.30;;
69569;SDS011;56781;42.292;23.146;2023-05-07T06:56:18;10.77;;;5.30;;
69569;SDS011;56781;42.292;23.146;2023-05-07T06:58:46;8.77;;;4.82;;
69569;SDS011;56781;42.292;23.146;2023-05-07T07:01:13;7.03;;;4.90;;
69569;SDS011;56781;42.292;23.146;2023-05-07T07:03:40;10.43;;;5.05;;
69569;SDS011;56781;42.292;23.146;2023-05-07T07:06:07;7.63;;;4.80;;
69569;SDS011;56781;42.292;23.146;2023-05-07T07:08:35;8.20;;;4.75;;
69569;SDS011;56781;42.292;23.146;2023-05-07T07:11:02;9.77;;;4.65;;
69569;SDS011;56781;42.292;23.146;2023-05-07T07:13:29;9.60;;;5.53;;
69569;SDS011;56781;42.292;23.146;2023-05-07T07:15:56;9.93;;;5.25;;
69569;SDS011;56781;42.292;23.146;2023-05-07T07:18:23;9.63;;;5.27;;
69569;SDS011;56781;42.292;23.146;2023-05-07T07:20:50;8.00;;;5.38;;
69569;SDS011;56781;42.292;23.146;2023-05-07T07:23:18;10.35;;;6.68;;
69569;SDS011;56781;42.292;23.146;2023-05-07T07:25:45;12.65;;;6.30;;
69569;SDS011;56781;42.292;23.146;2023-05-07T07:28:12;10.70;;;6.72;;
69569;SDS011;56781;42.292;23.146;2023-05-07T07:30:39;10.60;;;5.90;;
69569;SDS011;56781;42.292;23.146;2023-05-07T07:33:06;8.80;;;5.70;;
69569;SDS011;56781;42.292;23.146;2023-05-07T07:35:34;9.70;;;5.70;;
69569;SDS011;56781;42.292;23.146;2023-05-07T07:38:01;11.43;;;5.28;;
69569;SDS011;56781;42.292;23.146;2023-05-07T07:40:28;11.55;;;6.60;;
69569;SDS011;56781;42.292;23.146;2023-05-07T07:42:56;10.40;;;5.00;;
69569;SDS011;56781;42.292;23.146;2023-05-07T07:45:23;7.47;;;4.85;;
69569;SDS011;56781;42.292;23.146;2023-05-07T07:47:50;7.40;;;5.00;;
69569;SDS011;56781;42.292;23.146;2023-05-07T07:50:18;6.78;;;4.20;;
69569;SDS011;56781;42.292;23.146;2023-05-07T07:53:05;5.90;;;4.22;;
69569;SDS011;56781;42.292;23.146;2023-05-07T07:55:32;8.57;;;4.03;;
69569;SDS011;56781;42.292;23.146;2023-05-07T07:58:04;5.15;;;3.67;;
69569;SDS011;56781;42.292;23.146;2023-05-07T08:00:31;5.35;;;3.15;;
69569;SDS011;56781;42.292;23.146;2023-05-07T08:02:58;5.65;;;3.30;;
69569;SDS011;56781;42.292;23.146;2023-05-07T08:05:26;4.93;;;3.67;;
69569;SDS011;56781;42.292;23.146;2023-05-07T08:07:53;5.27;;;3.70;;
69569;SDS011;56781;42.292;23.146;2023-05-07T08:10:21;5.93;;;3.38;;
69569;SDS011;56781;42.292;23.146;2023-05-07T08:12:48;6.45;;;3.50;;
69569;SDS011;56781;42.292;23.146;2023-05-07T08:15:16;7.85;;;3.90;;
69569;SDS011;56781;42.292;23.146;2023-05-07T08:17:43;4.72;;;3.20;;
69569;SDS011;56781;42.292;23.146;2023-05-07T08:20:11;4.87;;;3.47;;
69569;SDS011;56781;42.292;23.146;2023-05-07T08:22:38;6.90;;;3.72;;
69569;SDS011;56781;42.292;23.146;2023-05-07T08:25:06;6.32;;;3.70;;
69569;SDS011;56781;42.292;23.146;2023-05-07T08:27:34;5.55;;;3.45;;
69569;SDS011;56781;42.292;23.146;2023-05-07T08:30:01;7.38;;;3.78;;
69569;SDS011;56781;42.292;23.146;2023-05-07T08:32:29;8.43;;;3.57;;
69569;SDS011;56781;42.292;23.146;2023-05-07T08:34:56;6.35;;;3.80;;
69569;SDS011;56781;42.292;23.146;2023-05-07T08:37:23;6.63;;;3.55;;
69569;SDS011;56781;42.292;23.146;2023-05-07T08:39:50;7.47;;;3.70;;
69569;SDS011;56781;42.292;23.146;2023-05-07T08:42:17;6.88;;;4.45;;
69569;SDS011;56781;42.292;23.146;2023-05-07T08:44:47;7.40;;;4.20;;
69569;SDS011;56781;42.292;23.146;2023-05-07T08:47:19;5.35;;;3.97;;
69569;SDS011;56781;42.292;23.146;2023-05-07T08:49:49;7.43;;;4.53;;
69569;SDS011;56781;42.292;23.146;2023-05-07T08:52:16;5.55;;;4.03;;
69569;SDS011;56781;42.292;23.146;2023-05-07T08:54:46;5.35;;;3.90;;
69569;SDS011;56781;42.292;23.146;2023-05-07T08:57:14;5.97;;;3.90;;
69569;SDS011;56781;42.292;23.146;2023-05-07T08:59:41;6.93;;;4.05;;
69569;SDS011;56781;42.292;23.146;2023-05-07T09:02:08;7.50;;;4.18;;
69569;SDS011;56781;42.292;23.146;2023-05-07T09:04:37;8.32;;;3.80;;
69569;SDS011;56781;42.292;23.146;2023-05-07T09:07:05;8.23;;;4.40;;
69569;SDS011;56781;42.292;23.146;2023-05-07T09:09:32;5.97;;;3.87;;
69569;SDS011;56781;42.292;23.146;2023-05-07T09:12:00;7.47;;;4.05;;
69569;SDS011;56781;42.292;23.146;2023-05-07T09:14:28;6.90;;;4.30;;
69569;SDS011;56781;42.292;23.146;2023-05-07T09:16:56;9.60;;;5.70;;
69569;SDS011;56781;42.292;23.146;2023-05-07T09:19:24;6.90;;;4.35;;
69569;SDS011;56781;42.292;23.146;2023-05-07T09:21:59;9.37;;;4.03;;
69569;SDS011;56781;42.292;23.146;2023-05-07T09:24:30;7.53;;;4.40;;
69569;SDS011;56781;42.292;23.146;2023-05-07T09:27:01;13.07;;;7.10;;
69569;SDS011;56781;42.292;23.146;2023-05-07T09:29:29;6.82;;;4.10;;
69569;SDS011;56781;42.292;23.146;2023-05-07T09:31:56;9.20;;;3.80;;
69569;SDS011;56781;42.292;23.146;2023-05-07T09:34:23;8.57;;;4.10;;
69569;SDS011;56781;42.292;23.146;2023-05-07T09:36:50;7.15;;;4.00;;
69569;SDS011;56781;42.292;23.146;2023-05-07T09:39:18;6.97;;;4.03;;
69569;SDS011;56781;42.292;23.146;2023-05-07T09:41:48;7.18;;;4.30;;
69569;SDS011;56781;42.292;23.146;2023-05-07T09:44:21;6.03;;;4.40;;
69569;SDS011;56781;42.292;23.146;2023-05-07T09:46:51;10.33;;;4.20;;
69569;SDS011;56781;42.292;23.146;2023-05-07T09:49:22;6.60;;;4.43;;
69569;SDS011;56781;42.292;23.146;2023-05-07T09:51:51;8.68;;;4.90;;
69569;SDS011;56781;42.292;23.146;2023-05-07T09:54:19;5.75;;;4.38;;
69569;SDS011;56781;42.292;23.146;2023-05-07T09:56:47;10.93;;;5.13;;
69569;SDS011;56781;42.292;23.146;2023-05-07T09:59:16;7.53;;;4.70;;
69569;SDS011;56781;42.292;23.146;2023-05-07T10:01:43;6.90;;;4.55;;
69569;SDS011;56781;42.292;23.146;2023-05-07T10:04:11;8.20;;;4.75;;
69569;SDS011;56781;42.292;23.146;2023-05-07T10:06:39;6.85;;;3.97;;
69569;SDS011;56781;42.292;23.146;2023-05-07T10:09:08;7.65;;;3.95;;
69569;SDS011;56781;42.292;23.146;2023-05-07T10:11:36;5.90;;;3.80;;
69569;SDS011;56781;42.292;23.146;2023-05-07T10:14:04;8.13;;;3.90;;
69569;SDS011;56781;42.292;23.146;2023-05-07T10:16:35;8.13;;;4.10;;
69569;SDS011;56781;42.292;23.146;2023-05-07T10:19:03;6.32;;;4.00;;
69569;SDS011;56781;42.292;23.146;2023-05-07T10:21:34;6.28;;;3.90;;
69569;SDS011;56781;42.292;23.146;2023-05-07T10:24:04;5.47;;;3.60;;
69569;SDS011;56781;42.292;23.146;2023-05-07T10:26:52;6.35;;;3.70;;
69569;SDS011;56781;42.292;23.146;2023-05-07T10:34:28;5.13;;;3.20;;
69569;SDS011;56781;42.292;23.146;2023-05-07T10:37:02;4.73;;;3.20;;
69569;SDS011;56781;42.292;23.146;2023-05-07T10:39:30;6.18;;;3.53;;
69569;SDS011;56781;42.292;23.146;2023-05-07T10:42:07;5.90;;;3.60;;
69569;SDS011;56781;42.292;23.146;2023-05-07T10:44:38;5.85;;;3.70;;
69569;SDS011;56781;42.292;23.146;2023-05-07T10:47:12;5.95;;;3.97;;
69569;SDS011;56781;42.292;23.146;2023-05-07T10:52:15;5.80;;;4.20;;
69569;SDS011;56781;42.292;23.146;2023-05-07T10:54:45;6.03;;;4.25;;
69569;SDS011;56781;42.292;23.146;2023-05-07T10:59:58;6.43;;;3.75;;
69569;SDS011;56781;42.292;23.146;2023-05-07T11:05:32;4.82;;;3.50;;
69569;SDS011;56781;42.292;23.146;2023-05-07T11:08:03;5.30;;;3.75;;
69569;SDS011;56781;42.292;23.146;2023-05-07T11:13:19;5.05;;;3.58;;
69569;SDS011;56781;42.292;23.146;2023-05-07T11:16:21;5.07;;;3.40;;
69569;SDS011;56781;42.292;23.146;2023-05-07T11:18:51;6.15;;;4.00;;
69569;SDS011;56781;42.292;23.146;2023-05-07T11:21:53;6.40;;;3.92;;
69569;SDS011;56781;42.292;23.146;2023-05-07T11:24:13;5.65;;;3.67;;
69569;SDS011;56781;42.292;23.146;2023-05-07T11:29:12;5.43;;;3.73;;
69569;SDS011;56781;42.292;23.146;2023-05-07T11:31:40;4.70;;;3.42;;
69569;SDS011;56781;42.292;23.146;2023-05-07T11:34:08;6.28;;;3.65;;
69569;SDS011;56781;42.292;23.146;2023-05-07T11:36:37;5.43;;;4.20;;
69569;SDS011;56781;42.292;23.146;2023-05-07T11:42:02;5.93;;;3.70;;
69569;SDS011;56781;42.292;23.146;2023-05-07T11:44:42;6.70;;;3.72;;
69569;SDS011;56781;42.292;23.146;2023-05-07T11:47:19;6.38;;;3.65;;
69569;SDS011;56781;42.292;23.146;2023-05-07T11:49:47;5.78;;;3.70;;
69569;SDS011;56781;42.292;23.146;2023-05-07T11:52:16;5.78;;;3.85;;
69569;SDS011;56781;42.292;23.146;2023-05-07T11:54:50;5.53;;;3.80;;
69569;SDS011;56781;42.292;23.146;2023-05-07T11:57:19;5.43;;;3.92;;
69569;SDS011;56781;42.292;23.146;2023-05-07T11:59:46;6.97;;;3.70;;
69569;SDS011;56781;42.292;23.146;2023-05-07T12:02:14;5.45;;;3.60;;
69569;SDS011;56781;42.292;23.146;2023-05-07T12:04:42;5.78;;;3.78;;
69569;SDS011;56781;42.292;23.146;2023-05-07T12:07:13;11.23;;;4.00;;
69569;SDS011;56781;42.292;23.146;2023-05-07T12:09:45;5.32;;;4.07;;
69569;SDS011;56781;42.292;23.146;2023-05-07T12:12:12;6.63;;;3.88;;
69569;SDS011;56781;42.292;23.146;2023-05-07T12:14:42;6.25;;;3.97;;
69569;SDS011;56781;42.292;23.146;2023-05-07T12:17:12;5.47;;;3.70;;
69569;SDS011;56781;42.292;23.146;2023-05-07T12:19:41;4.77;;;3.73;;
69569;SDS011;56781;42.292;23.146;2023-05-07T12:22:10;4.45;;;3.40;;
69569;SDS011;56781;42.292;23.146;2023-05-07T12:24:47;5.70;;;3.47;;
69569;SDS011;56781;42.292;23.146;2023-05-07T12:27:17;4.60;;;3.35;;
69569;SDS011;56781;42.292;23.146;2023-05-07T12:29:45;8.45;;;3.53;;
69569;SDS011;56781;42.292;23.146;2023-05-07T12:32:13;4.87;;;3.47;;
69569;SDS011;56781;42.292;23.146;2023-05-07T12:34:44;4.80;;;3.50;;
69569;SDS011;56781;42.292;23.146;2023-05-07T12:37:12;5.60;;;3.50;;
69569;SDS011;56781;42.292;23.146;2023-05-07T12:39:48;6.45;;;3.58;;
69569;SDS011;56781;42.292;23.146;2023-05-07T12:42:32;5.38;;;3.50;;
69569;SDS011;56781;42.292;23.146;2023-05-07T12:45:11;5.03;;;3.40;;
69569;SDS011;56781;42.292;23.146;2023-05-07T12:47:43;7.32;;;3.83;;
69569;SDS011;56781;42.292;23.146;2023-05-07T12:50:13;5.75;;;3.33;;
69569;SDS011;56781;42.292;23.146;2023-05-07T12:52:41;4.60;;;3.35;;
69569;SDS011;56781;42.292;23.146;2023-05-07T12:55:14;6.13;;;4.10;;
69569;SDS011;56781;42.292;23.146;2023-05-07T12:57:42;6.70;;;4.03;;
69569;SDS011;56781;42.292;23.146;2023-05-07T13:00:14;7.85;;;3.75;;
69569;SDS011;56781;42.292;23.146;2023-05-07T13:02:42;6.18;;;3.67;;
69569;SDS011;56781;42.292;23.146;2023-05-07T13:05:13;5.10;;;3.95;;
69569;SDS011;56781;42.292;23.146;2023-05-07T13:07:40;5.65;;;3.92;;
69569;SDS011;56781;42.292;23.146;2023-05-07T13:10:18;8.43;;;3.90;;
69569;SDS011;56781;42.292;23.146;2023-05-07T13:12:46;5.80;;;3.50;;
69569;SDS011;56781;42.292;23.146;2023-05-07T13:15:13;5.40;;;3.50;;
69569;SDS011;56781;42.292;23.146;2023-05-07T13:17:40;5.93;;;3.88;;
69569;SDS011;56781;42.292;23.146;2023-05-07T13:20:08;5.85;;;3.40;;
69569;SDS011;56781;42.292;23.146;2023-05-07T13:22:37;6.33;;;3.63;;
69569;SDS011;56781;42.292;23.146;2023-05-07T13:25:04;5.80;;;3.50;;
69569;SDS011;56781;42.292;23.146;2023-05-07T13:27:32;7.63;;;3.60;;
69569;SDS011;56781;42.292;23.146;2023-05-07T13:30:02;4.90;;;3.05;;
69569;SDS011;56781;42.292;23.146;2023-05-07T13:32:31;5.00;;;3.25;;
69569;SDS011;56781;42.292;23.146;2023-05-07T13:34:58;5.67;;;3.60;;
69569;SDS011;56781;42.292;23.146;2023-05-07T13:37:25;5.82;;;3.47;;
69569;SDS011;56781;42.292;23.146;2023-05-07T13:39:52;5.28;;;3.50;;
69569;SDS011;56781;42.292;23.146;2023-05-07T13:42:19;6.15;;;3.53;;
69569;SDS011;56781;42.292;23.146;2023-05-07T13:44:46;5.15;;;3.42;;
69569;SDS011;56781;42.292;23.146;2023-05-07T13:47:13;4.43;;;3.40;;
69569;SDS011;56781;42.292;23.146;2023-05-07T13:49:40;4.20;;;3.10;;
69569;SDS011;56781;42.292;23.146;2023-05-07T13:52:07;4.68;;;3.22;;
69569;SDS011;56781;42.292;23.146;2023-05-07T13:54:34;6.60;;;3.08;;
69569;SDS011;56781;42.292;23.146;2023-05-07T13:57:01;5.28;;;3.00;;
69569;SDS011;56781;42.292;23.146;2023-05-07T13:59:29;4.73;;;3.13;;
69569;SDS011;56781;42.292;23.146;2023-05-07T14:01:56;4.82;;;3.40;;
69569;SDS011;56781;42.292;23.146;2023-05-07T14:04:23;4.95;;;3.28;;
69569;SDS011;56781;42.292;23.146;2023-05-07T14:06:50;5.07;;;3.30;;
69569;SDS011;56781;42.292;23.146;2023-05-07T14:09:17;6.03;;;3.42;;
69569;SDS011;56781;42.292;23.146;2023-05-07T14:11:44;6.10;;;3.20;;
69569;SDS011;56781;42.292;23.146;2023-05-07T14:14:13;4.63;;;3.05;;
69569;SDS011;56781;42.292;23.146;2023-05-07T14:16:41;4.30;;;3.20;;
69569;SDS011;56781;42.292;23.146;2023-05-07T14:19:08;4.15;;;3.00;;
69569;SDS011;56781;42.292;23.146;2023-05-07T14:21:35;5.72;;;3.00;;
69569;SDS011;56781;42.292;23.146;2023-05-07T14:24:02;6.03;;;3.60;;
69569;SDS011;56781;42.292;23.146;2023-05-07T14:26:29;5.47;;;3.42;;
69569;SDS011;56781;42.292;23.146;2023-05-07T14:28:57;4.40;;;3.40;;
69569;SDS011;56781;42.292;23.146;2023-05-07T14:31:24;4.60;;;3.28;;
69569;SDS011;56781;42.292;23.146;2023-05-07T14:33:52;5.70;;;3.72;;
69569;SDS011;56781;42.292;23.146;2023-05-07T14:36:19;6.90;;;3.83;;
69569;SDS011;56781;42.292;23.146;2023-05-07T14:38:47;6.75;;;3.90;;
69569;SDS011;56781;42.292;23.146;2023-05-07T14:41:15;7.80;;;3.80;;
69569;SDS011;56781;42.292;23.146;2023-05-07T14:43:42;7.03;;;4.10;;
69569;SDS011;56781;42.292;23.146;2023-05-07T14:46:10;6.00;;;3.97;;
69569;SDS011;56781;42.292;23.146;2023-05-07T14:48:37;5.60;;;3.70;;
69569;SDS011;56781;42.292;23.146;2023-05-07T14:51:04;4.90;;;3.30;;
69569;SDS011;56781;42.292;23.146;2023-05-07T14:53:33;9.85;;;3.72;;
69569;SDS011;56781;42.292;23.146;2023-05-07T14:56:00;6.68;;;3.88;;
69569;SDS011;56781;42.292;23.146;2023-05-07T14:58:27;5.82;;;3.80;;
69569;SDS011;56781;42.292;23.146;2023-05-07T15:00:54;4.33;;;3.53;;